Time,TemperatureF,DewpointF,PressureIn,WindDirection,WindDirectionDegrees,WindSpeedMPH,WindSpeedGustMPH,Humidity,HourlyPrecipIn,Conditions,Clouds,dailyrainin,SoftwareType,DateUTC
2013-02-02 00:07:00,45.1,43.0,30.21,SW,228,0.0,3.0,91,0.00,,,0.00,weatherlink.com 1.10,2013-02-02 08:07:00,
2013-02-02 00:23:00,45.0,43.0,30.22,SW,219,0.0,0.0,91,0.00,,,0.00,weatherlink.com 1.10,2013-02-02 08:23:00,
2013-02-02 00:37:00,45.0,43.0,30.22,ENE,58,0.0,0.0,92,0.00,,,0.00,weatherlink.com 1.10,2013-02-02 08:37:00,
2013-02-02 00:52:00,44.6,42.0,30.22,ENE,58,0.0,0.0,91,0.00,,,0.00,weatherlink.com 1.10,2013-02-02 08:52:00,
2013-02-02 01:07:00,44.1,42.0,30.22,ENE,58,0.0,0.0,92,0.00,,,0.00,weatherlink.com 1.10,2013-02-02 09:07:00,
2013-02-02 01:22:00,43.7,42.0,30.22,ENE,58,0.0,0.0,92,0.00,,,0.00,weatherlink.com 1.10,2013-02-02 09:22:00,
2013-02-02 01:37:00,43.0,41.0,30.23,ENE,58,0.0,0.0,92,0.00,,,0.00,weatherlink.com 1.10,2013-02-02 09:37:00,
2013-02-02 01:52:00,42.7,41.0,30.23,ENE,58,0.0,0.0,93,0.00,,,0.00,weatherlink.com 1.10,2013-02-02 09:52:00,
2013-02-02 02:08:00,42.4,41.0,30.24,SSW,206,0.0,0.0,94,0.00,,,0.00,weatherlink.com 1.10,2013-02-02 10:08:00,
2013-02-02 02:22:00,42.6,41.0,30.24,SSE,165,0.0,0.0,95,0.00,,,0.00,weatherlink.com 1.10,2013-02-02 10:22:00,
2013-02-02 02:37:00,42.5,41.0,30.24,SSE,152,0.0,0.0,95,0.00,,,0.00,weatherlink.com 1.10,2013-02-02 10:37:00,
2013-02-02 02:52:00,42.9,42.0,30.24,SSE,161,0.0,0.0,95,0.00,,,0.00,weatherlink.com 1.10,2013-02-02 10:52:00,
2013-02-02 03:07:00,43.2,42.0,30.24,SSW,200,0.0,0.0,95,0.00,,,0.00,weatherlink.com 1.10,2013-02-02 11:07:00,
2013-02-02 03:22:00,42.7,41.0,30.23,East,84,0.0,0.0,95,0.00,,,0.00,weatherlink.com 1.10,2013-02-02 11:22:00,
2013-02-02 03:37:00,42.5,41.0,30.23,East,84,0.0,0.0,95,0.00,,,0.00,weatherlink.com 1.10,2013-02-02 11:37:00,
2013-02-02 03:52:00,42.5,42.0,30.24,East,84,0.0,0.0,96,0.00,,,0.00,weatherlink.com 1.10,2013-02-02 11:52:00,
2013-02-02 04:07:00,42.5,42.0,30.24,NNE,24,0.0,0.0,96,0.00,,,0.00,weatherlink.com 1.10,2013-02-02 12:07:00,
2013-02-02 04:22:00,42.7,42.0,30.23,NE,46,2.0,2.0,96,0.00,,,0.00,weatherlink.com 1.10,2013-02-02 12:22:00,
2013-02-02 04:37:00,43.6,43.0,30.23,NNE,14,3.0,4.0,96,0.00,,,0.00,weatherlink.com 1.10,2013-02-02 12:37:00,
2013-02-02 04:53:00,43.1,42.0,30.22,NNW,348,0.0,3.0,96,0.00,,,0.00,weatherlink.com 1.10,2013-02-02 12:53:00,
2013-02-02 05:08:00,42.4,41.0,30.23,NW,322,0.0,0.0,96,0.00,,,0.00,weatherlink.com 1.10,2013-02-02 13:08:00,
2013-02-02 05:23:00,41.9,41.0,30.23,South,172,0.0,0.0,96,0.00,,,0.00,weatherlink.com 1.10,2013-02-02 13:23:00,
2013-02-02 05:38:00,41.9,41.0,30.23,SW,226,0.0,1.0,97,0.00,,,0.00,weatherlink.com 1.10,2013-02-02 13:38:00,
2013-02-02 05:53:00,42.2,41.0,30.23,ESE,115,0.0,1.0,97,0.00,,,0.00,weatherlink.com 1.10,2013-02-02 13:53:00,
2013-02-02 06:08:00,42.5,42.0,30.24,SW,222,0.0,0.0,98,0.00,,,0.00,weatherlink.com 1.10,2013-02-02 14:08:00,
2013-02-02 06:23:00,43.1,43.0,30.25,SW,226,0.0,0.0,98,0.00,,,0.00,weatherlink.com 1.10,2013-02-02 14:23:00,
2013-02-02 06:38:00,43.8,43.0,30.25,SSW,210,0.0,0.0,98,0.00,,,0.00,weatherlink.com 1.10,2013-02-02 14:38:00,
2013-02-02 06:53:00,44.1,44.0,30.26,SW,220,0.0,0.0,98,0.00,,,0.00,weatherlink.com 1.10,2013-02-02 14:53:00,
2013-02-02 07:08:00,44.3,44.0,30.26,SW,214,0.0,0.0,98,0.00,,,0.00,weatherlink.com 1.10,2013-02-02 15:08:00,
2013-02-02 07:23:00,44.3,44.0,30.27,SW,214,0.0,0.0,98,0.00,,,0.00,weatherlink.com 1.10,2013-02-02 15:23:00,
2013-02-02 07:38:00,44.4,44.0,30.27,NE,44,0.0,0.0,98,0.00,,,0.00,weatherlink.com 1.10,2013-02-02 15:38:00,
2013-02-02 07:53:00,43.9,43.0,30.27,East,82,2.0,3.0,98,0.00,,,0.00,weatherlink.com 1.10,2013-02-02 15:53:00,
2013-02-02 08:08:00,44.1,44.0,30.27,ENE,61,0.0,2.0,98,0.00,,,0.00,weatherlink.com 1.10,2013-02-02 16:08:00,
2013-02-02 08:23:00,44.5,44.0,30.28,NNE,19,0.0,0.0,99,0.00,,,0.00,weatherlink.com 1.10,2013-02-02 16:23:00,
2013-02-02 08:38:00,44.7,45.0,30.29,NW,312,0.0,0.0,99,0.00,,,0.00,weatherlink.com 1.10,2013-02-02 16:38:00,
2013-02-02 08:53:00,44.9,45.0,30.30,NW,316,0.0,0.0,99,0.00,,,0.00,weatherlink.com 1.10,2013-02-02 16:53:00,
2013-02-02 09:08:00,45.3,45.0,30.30,NW,316,0.0,0.0,99,0.00,,,0.00,weatherlink.com 1.10,2013-02-02 17:08:00,
2013-02-02 09:23:00,45.8,46.0,30.31,NNW,346,0.0,0.0,99,0.00,,,0.00,weatherlink.com 1.10,2013-02-02 17:23:00,
2013-02-02 09:38:00,45.9,46.0,30.30,NNE,18,0.0,0.0,99,0.00,,,0.00,weatherlink.com 1.10,2013-02-02 17:38:00,
2013-02-02 09:53:00,45.5,45.0,30.30,NNE,32,2.0,4.0,99,0.00,,,0.00,weatherlink.com 1.10,2013-02-02 17:53:00,
2013-02-02 10:08:00,45.4,45.0,30.31,NNE,27,1.0,4.0,99,0.00,,,0.00,weatherlink.com 1.10,2013-02-02 18:08:00,
2013-02-02 10:23:00,46.2,46.0,30.31,ENE,71,0.0,0.0,99,0.00,,,0.00,weatherlink.com 1.10,2013-02-02 18:23:00,
2013-02-02 10:38:00,46.7,47.0,30.31,NNW,330,0.0,0.0,99,0.00,,,0.00,weatherlink.com 1.10,2013-02-02 18:38:00,
2013-02-02 10:53:00,47.1,47.0,30.30,NNW,344,0.0,1.0,99,0.00,,,0.00,weatherlink.com 1.10,2013-02-02 18:53:00,
2013-02-02 11:23:00,48.6,48.0,30.30,West,266,1.0,3.0,99,0.00,,,0.00,weatherlink.com 1.10,2013-02-02 19:23:00,
2013-02-02 11:39:00,49.0,49.0,30.29,ESE,121,0.0,2.0,98,0.00,,,0.00,weatherlink.com 1.10,2013-02-02 19:39:00,
2013-02-02 11:54:00,49.3,49.0,30.29,NNE,26,0.0,0.0,97,0.00,,,0.00,weatherlink.com 1.10,2013-02-02 19:54:00,
2013-02-02 12:09:00,50.4,49.0,30.28,NNE,19,0.0,0.0,96,0.00,,,0.00,weatherlink.com 1.10,2013-02-02 20:09:00,
2013-02-02 12:23:00,51.0,49.0,30.27,WSW,238,0.0,0.0,94,0.00,,,0.00,weatherlink.com 1.10,2013-02-02 20:23:00,
2013-02-02 12:38:00,52.3,50.0,30.27,SSW,211,0.0,4.0,91,0.00,,,0.00,weatherlink.com 1.10,2013-02-02 20:38:00,
2013-02-02 12:54:00,53.0,49.0,30.26,South,183,0.0,4.0,87,0.00,,,0.00,weatherlink.com 1.10,2013-02-02 20:54:00,
2013-02-02 13:09:00,53.3,50.0,30.26,WSW,248,1.0,5.0,88,0.00,,,0.00,weatherlink.com 1.10,2013-02-02 21:09:00,
2013-02-02 13:24:00,54.3,50.0,30.25,SSW,211,2.0,2.0,86,0.00,,,0.00,weatherlink.com 1.10,2013-02-02 21:24:00,
2013-02-02 13:39:00,55.3,51.0,30.24,East,86,1.0,4.0,84,0.00,,,0.00,weatherlink.com 1.10,2013-02-02 21:39:00,
2013-02-02 13:54:00,56.1,51.0,30.24,SSW,211,0.0,4.0,83,0.00,,,0.00,weatherlink.com 1.10,2013-02-02 21:54:00,
2013-02-02 14:09:00,57.0,52.0,30.23,SW,219,1.0,5.0,82,0.00,,,0.00,weatherlink.com 1.10,2013-02-02 22:09:00,
2013-02-02 14:24:00,58.4,52.0,30.23,ESE,115,3.0,7.0,79,0.00,,,0.00,weatherlink.com 1.10,2013-02-02 22:24:00,
2013-02-02 14:39:00,59.9,52.0,30.23,West,273,0.0,4.0,76,0.00,,,0.00,weatherlink.com 1.10,2013-02-02 22:39:00,
2013-02-02 14:54:00,58.8,51.0,30.23,SW,218,4.0,6.0,76,0.00,,,0.00,weatherlink.com 1.10,2013-02-02 22:54:00,
2013-02-02 15:09:00,58.2,51.0,30.23,SSW,204,3.0,5.0,77,0.00,,,0.00,weatherlink.com 1.10,2013-02-02 23:09:00,
2013-02-02 15:24:00,58.1,51.0,30.22,West,274,0.0,4.0,78,0.00,,,0.00,weatherlink.com 1.10,2013-02-02 23:24:00,
2013-02-02 15:39:00,59.2,51.0,30.22,SW,225,3.0,5.0,75,0.00,,,0.00,weatherlink.com 1.10,2013-02-02 23:39:00,
2013-02-02 15:54:00,59.4,51.0,30.21,SW,227,4.0,5.0,75,0.00,,,0.00,weatherlink.com 1.10,2013-02-02 23:54:00,
2013-02-02 16:09:00,59.0,51.0,30.22,SW,236,1.0,5.0,75,0.00,,,0.00,weatherlink.com 1.10,2013-02-03 00:09:00,
2013-02-02 16:24:00,59.1,51.0,30.22,SSW,195,5.0,7.0,75,0.00,,,0.00,weatherlink.com 1.10,2013-02-03 00:24:00,
2013-02-02 16:39:00,59.2,51.0,30.22,West,267,4.0,6.0,75,0.00,,,0.00,weatherlink.com 1.10,2013-02-03 00:39:00,
2013-02-02 16:54:00,56.3,49.0,30.23,SW,219,7.0,11.0,77,0.00,,,0.00,weatherlink.com 1.10,2013-02-03 00:54:00,
2013-02-02 17:09:00,54.9,49.0,30.23,SSW,205,6.0,8.0,81,0.00,,,0.00,weatherlink.com 1.10,2013-02-03 01:09:00,
2013-02-02 17:29:00,54.1,48.0,30.23,SSE,149,2.0,7.0,81,0.00,,,0.00,weatherlink.com 1.10,2013-02-03 01:29:00,
2013-02-02 17:39:00,52.8,48.0,30.24,SW,224,1.0,6.0,83,0.00,,,0.00,weatherlink.com 1.10,2013-02-03 01:39:00,
2013-02-02 17:54:00,52.0,48.0,30.24,SW,232,2.0,6.0,85,0.00,,,0.00,weatherlink.com 1.10,2013-02-03 01:54:00,
2013-02-02 18:09:00,51.2,47.0,30.24,ESE,121,0.0,1.0,86,0.00,,,0.00,weatherlink.com 1.10,2013-02-03 02:09:00,
2013-02-02 18:24:00,50.7,47.0,30.24,NNW,338,0.0,0.0,87,0.00,,,0.00,weatherlink.com 1.10,2013-02-03 02:24:00,
2013-02-02 18:39:00,50.0,47.0,30.24,NNW,339,0.0,0.0,88,0.00,,,0.00,weatherlink.com 1.10,2013-02-03 02:39:00,
2013-02-02 18:54:00,48.9,46.0,30.24,NNW,338,0.0,0.0,88,0.00,,,0.00,weatherlink.com 1.10,2013-02-03 02:54:00,
2013-02-02 19:09:00,48.1,45.0,30.24,NNW,339,0.0,0.0,90,0.00,,,0.00,weatherlink.com 1.10,2013-02-03 03:09:00,
2013-02-02 19:24:00,47.2,45.0,30.24,NNW,338,0.0,0.0,91,0.00,,,0.00,weatherlink.com 1.10,2013-02-03 03:24:00,
2013-02-02 19:40:00,46.5,44.0,30.24,NNW,338,0.0,0.0,92,0.00,,,0.00,weatherlink.com 1.10,2013-02-03 03:40:00,
2013-02-02 19:54:00,46.1,44.0,30.24,East,98,0.0,0.0,93,0.00,,,0.00,weatherlink.com 1.10,2013-02-03 03:54:00,
2013-02-02 20:09:00,45.9,44.0,30.23,ESE,108,0.0,0.0,93,0.00,,,0.00,weatherlink.com 1.10,2013-02-03 04:09:00,
2013-02-02 20:24:00,45.2,44.0,30.23,ESE,103,0.0,0.0,94,0.00,,,0.00,weatherlink.com 1.10,2013-02-03 04:24:00,
2013-02-02 20:40:00,44.3,43.0,30.23,ESE,103,0.0,0.0,94,0.00,,,0.00,weatherlink.com 1.10,2013-02-03 04:40:00,
2013-02-02 20:54:00,43.8,42.0,30.23,ESE,103,0.0,0.0,94,0.00,,,0.00,weatherlink.com 1.10,2013-02-03 04:54:00,
2013-02-02 21:10:00,43.6,42.0,30.23,East,98,0.0,0.0,95,0.00,,,0.00,weatherlink.com 1.10,2013-02-03 05:10:00,
2013-02-02 21:24:00,44.3,43.0,30.23,SE,125,0.0,0.0,96,0.00,,,0.00,weatherlink.com 1.10,2013-02-03 05:24:00,
2013-02-02 21:39:00,44.2,43.0,30.23,SE,124,0.0,0.0,96,0.00,,,0.00,weatherlink.com 1.10,2013-02-03 05:39:00,
2013-02-02 21:54:00,43.3,42.0,30.23,SE,125,0.0,0.0,96,0.00,,,0.00,weatherlink.com 1.10,2013-02-03 05:54:00,
2013-02-02 22:09:00,42.7,42.0,30.23,SE,126,0.0,0.0,96,0.00,,,0.00,weatherlink.com 1.10,2013-02-03 06:09:00,
2013-02-02 22:24:00,42.0,41.0,30.23,SE,125,0.0,0.0,97,0.00,,,0.00,weatherlink.com 1.10,2013-02-03 06:24:00,
2013-02-02 22:39:00,41.9,41.0,30.24,SE,126,0.0,0.0,97,0.00,,,0.00,weatherlink.com 1.10,2013-02-03 06:39:00,
2013-02-02 22:54:00,42.6,42.0,30.24,SE,125,0.0,0.0,98,0.00,,,0.00,weatherlink.com 1.10,2013-02-03 06:54:00,
2013-02-02 23:09:00,41.9,41.0,30.24,SE,126,0.0,0.0,97,0.00,,,0.00,weatherlink.com 1.10,2013-02-03 07:09:00,
2013-02-02 23:25:00,41.7,41.0,30.24,SE,125,0.0,0.0,97,0.00,,,0.00,weatherlink.com 1.10,2013-02-03 07:25:00,
2013-02-02 23:40:00,40.9,40.0,30.24,SE,125,0.0,0.0,97,0.00,,,0.00,weatherlink.com 1.10,2013-02-03 07:40:00,
2013-02-02 23:55:00,40.7,40.0,30.24,SE,126,0.0,0.0,98,0.00,,,0.00,weatherlink.com 1.10,2013-02-03 07:55:00,